Hovedside
METAR-TAF:

METAR-TAF

Lufthavner :

Kemi-Torneå lufthavn

Kemi, Finland

breddegrad: 65-47N, lengdegrad: 024-35E, høyde over havet: 15 m

Gjeldene værobservasjon

Denne rapporten ble laget for 42 minutter siden, klokken 04:20 UTC
Vind 3 kt fra Nord-nordøst
Temperatur 1°C
Luftfuktighet 86%
Trykk 1025 hPa
Sikt 10 km eller mer
ingen skyer under 1500 m og ingen bygeskyer

METAR: EFKE 250420Z AUTO 02003KT CAVOK 01/M01 Q1025

Tid: 08:02 (05:02 UTC)

Varsel

Denne rapporten ble laget for 8 timer og 40 minutter siden, klokken 20:22 UTC
Varsel gyldig fra 24. klokken 21 UTC til 24. klokken 24 UTC
Vind 2 kt fra skiftende retning
Sikt 10 km eller mer
ingen skyer under 1500 m og ingen bygeskyer
Sannsynlighet 30%
fra 24. klokken 22 UTC til 24. klokken 24 UTC
Sikt: 6000 m

TAF: EFKE 242022Z 2421/2424 VRB02KT CAVOK PROB30 2422/2424 6000

Værobservasjoner og værvarsel for over 4000 flyplasser (METAR- og TAF-rapporter).

Tilgjengelige stasjoner er representert av de røde og gule prikkene på kartet.

Hold musepekeren over prikken for å se navnet på stasjonen.

Klikk så for å se værobservasjoner og -varsler.

For å forandre kartet kan du klikke på den grønne knappen med svart kryss for å zoome inn, på den grønne knappen med strek for å zoome ut, eller på de grønne pilene for å se tilstøtende kart.


METAR-TAF: